sensor_id;sensor_type;location;lat;lon;timestamp;P1;durP1;ratioP1;P2;durP2;ratioP2
48006;SDS011;33771;48.180;11.400;2024-01-15T00:02:05;12.13;;;6.67;;
48006;SDS011;33771;48.180;11.400;2024-01-15T00:04:31;15.57;;;6.93;;
48006;SDS011;33771;48.180;11.400;2024-01-15T00:07:01;13.60;;;6.77;;
48006;SDS011;33771;48.180;11.400;2024-01-15T00:09:26;12.47;;;7.07;;
48006;SDS011;33771;48.180;11.400;2024-01-15T00:11:52;11.40;;;6.70;;
48006;SDS011;33771;48.180;11.400;2024-01-15T00:14:18;14.70;;;7.27;;
48006;SDS011;33771;48.180;11.400;2024-01-15T00:16:45;16.10;;;7.80;;
48006;SDS011;33771;48.180;11.400;2024-01-15T00:19:11;12.63;;;7.90;;
48006;SDS011;33771;48.180;11.400;2024-01-15T00:21:36;14.43;;;7.77;;
48006;SDS011;33771;48.180;11.400;2024-01-15T00:24:02;14.07;;;7.00;;
48006;SDS011;33771;48.180;11.400;2024-01-15T00:26:27;13.97;;;6.97;;
48006;SDS011;33771;48.180;11.400;2024-01-15T00:28:53;13.57;;;7.10;;
48006;SDS011;33771;48.180;11.400;2024-01-15T00:31:18;13.00;;;7.50;;
48006;SDS011;33771;48.180;11.400;2024-01-15T00:33:44;12.87;;;6.83;;
48006;SDS011;33771;48.180;11.400;2024-01-15T00:36:09;14.43;;;7.20;;
48006;SDS011;33771;48.180;11.400;2024-01-15T00:38:36;15.80;;;7.80;;
48006;SDS011;33771;48.180;11.400;2024-01-15T00:41:01;13.27;;;7.60;;
48006;SDS011;33771;48.180;11.400;2024-01-15T00:43:27;14.40;;;7.43;;
48006;SDS011;33771;48.180;11.400;2024-01-15T00:45:53;14.50;;;7.87;;
48006;SDS011;33771;48.180;11.400;2024-01-15T00:48:18;15.90;;;8.30;;
48006;SDS011;33771;48.180;11.400;2024-01-15T00:50:44;16.77;;;9.03;;
48006;SDS011;33771;48.180;11.400;2024-01-15T00:53:10;17.20;;;9.43;;
48006;SDS011;33771;48.180;11.400;2024-01-15T00:55:35;18.77;;;9.90;;
48006;SDS011;33771;48.180;11.400;2024-01-15T00:58:02;22.07;;;10.03;;
48006;SDS011;33771;48.180;11.400;2024-01-15T01:00:28;18.60;;;10.00;;
48006;SDS011;33771;48.180;11.400;2024-01-15T01:02:53;19.63;;;10.47;;
48006;SDS011;33771;48.180;11.400;2024-01-15T01:05:19;22.77;;;9.90;;
48006;SDS011;33771;48.180;11.400;2024-01-15T01:07:45;21.80;;;11.87;;
48006;SDS011;33771;48.180;11.400;2024-01-15T01:10:10;20.70;;;10.23;;
48006;SDS011;33771;48.180;11.400;2024-01-15T01:12:36;19.97;;;9.87;;
48006;SDS011;33771;48.180;11.400;2024-01-15T01:15:01;18.33;;;10.37;;
48006;SDS011;33771;48.180;11.400;2024-01-15T01:17:27;19.63;;;9.77;;
48006;SDS011;33771;48.180;11.400;2024-01-15T01:19:53;19.17;;;10.93;;
48006;SDS011;33771;48.180;11.400;2024-01-15T01:22:18;21.47;;;10.97;;
48006;SDS011;33771;48.180;11.400;2024-01-15T01:24:44;19.13;;;8.93;;
48006;SDS011;33771;48.180;11.400;2024-01-15T01:27:09;18.20;;;9.20;;
48006;SDS011;33771;48.180;11.400;2024-01-15T01:29:35;19.17;;;10.13;;
48006;SDS011;33771;48.180;11.400;2024-01-15T01:32:00;20.90;;;8.90;;
48006;SDS011;33771;48.180;11.400;2024-01-15T01:34:27;19.90;;;8.50;;
48006;SDS011;33771;48.180;11.400;2024-01-15T01:36:55;15.23;;;8.03;;
48006;SDS011;33771;48.180;11.400;2024-01-15T01:39:20;16.60;;;7.87;;
48006;SDS011;33771;48.180;11.400;2024-01-15T01:41:46;15.20;;;8.07;;
48006;SDS011;33771;48.180;11.400;2024-01-15T01:44:11;17.07;;;8.40;;
48006;SDS011;33771;48.180;11.400;2024-01-15T01:46:37;17.87;;;8.03;;
48006;SDS011;33771;48.180;11.400;2024-01-15T01:49:05;16.00;;;8.00;;
48006;SDS011;33771;48.180;11.400;2024-01-15T01:51:31;16.23;;;8.43;;
48006;SDS011;33771;48.180;11.400;2024-01-15T01:53:59;14.30;;;8.37;;
48006;SDS011;33771;48.180;11.400;2024-01-15T01:56:25;19.27;;;10.13;;
48006;SDS011;33771;48.180;11.400;2024-01-15T01:58:51;14.17;;;7.70;;
48006;SDS011;33771;48.180;11.400;2024-01-15T02:01:17;15.43;;;8.90;;
48006;SDS011;33771;48.180;11.400;2024-01-15T02:03:44;16.37;;;9.30;;
48006;SDS011;33771;48.180;11.400;2024-01-15T02:06:10;18.40;;;8.67;;
48006;SDS011;33771;48.180;11.400;2024-01-15T02:08:36;17.47;;;8.90;;
48006;SDS011;33771;48.180;11.400;2024-01-15T02:11:01;16.40;;;8.77;;
48006;SDS011;33771;48.180;11.400;2024-01-15T02:13:27;17.03;;;8.03;;
48006;SDS011;33771;48.180;11.400;2024-01-15T02:15:53;19.30;;;8.97;;
48006;SDS011;33771;48.180;11.400;2024-01-15T02:18:18;19.13;;;9.60;;
48006;SDS011;33771;48.180;11.400;2024-01-15T02:20:45;18.67;;;8.50;;
48006;SDS011;33771;48.180;11.400;2024-01-15T02:23:14;17.63;;;8.70;;
48006;SDS011;33771;48.180;11.400;2024-01-15T02:25:40;19.20;;;9.40;;
48006;SDS011;33771;48.180;11.400;2024-01-15T02:28:09;19.17;;;9.87;;
48006;SDS011;33771;48.180;11.400;2024-01-15T02:30:36;18.57;;;9.33;;
48006;SDS011;33771;48.180;11.400;2024-01-15T02:33:04;18.77;;;9.10;;
48006;SDS011;33771;48.180;11.400;2024-01-15T02:35:30;20.67;;;10.27;;
48006;SDS011;33771;48.180;11.400;2024-01-15T02:37:55;18.57;;;9.47;;
48006;SDS011;33771;48.180;11.400;2024-01-15T02:40:21;18.73;;;9.57;;
48006;SDS011;33771;48.180;11.400;2024-01-15T02:42:46;19.77;;;9.73;;
48006;SDS011;33771;48.180;11.400;2024-01-15T02:45:12;20.37;;;9.93;;
48006;SDS011;33771;48.180;11.400;2024-01-15T02:47:37;19.47;;;9.73;;
48006;SDS011;33771;48.180;11.400;2024-01-15T02:50:03;19.10;;;9.23;;
48006;SDS011;33771;48.180;11.400;2024-01-15T02:52:29;22.10;;;10.87;;
48006;SDS011;33771;48.180;11.400;2024-01-15T02:54:55;21.07;;;9.63;;
48006;SDS011;33771;48.180;11.400;2024-01-15T02:57:20;18.17;;;9.33;;
48006;SDS011;33771;48.180;11.400;2024-01-15T02:59:45;17.53;;;8.93;;
48006;SDS011;33771;48.180;11.400;2024-01-15T03:02:11;18.77;;;9.83;;
48006;SDS011;33771;48.180;11.400;2024-01-15T03:04:36;17.23;;;8.47;;
48006;SDS011;33771;48.180;11.400;2024-01-15T03:07:02;17.57;;;8.90;;
48006;SDS011;33771;48.180;11.400;2024-01-15T03:09:28;20.07;;;9.30;;
48006;SDS011;33771;48.180;11.400;2024-01-15T03:11:53;17.60;;;8.87;;
48006;SDS011;33771;48.180;11.400;2024-01-15T03:14:19;16.17;;;8.27;;
48006;SDS011;33771;48.180;11.400;2024-01-15T03:16:45;15.57;;;8.27;;
48006;SDS011;33771;48.180;11.400;2024-01-15T03:19:11;16.17;;;8.20;;
48006;SDS011;33771;48.180;11.400;2024-01-15T03:21:36;17.10;;;8.17;;
48006;SDS011;33771;48.180;11.400;2024-01-15T03:24:02;17.17;;;8.80;;
48006;SDS011;33771;48.180;11.400;2024-01-15T03:26:27;16.03;;;8.50;;
48006;SDS011;33771;48.180;11.400;2024-01-15T03:28:53;16.17;;;7.83;;
48006;SDS011;33771;48.180;11.400;2024-01-15T03:31:18;15.37;;;7.97;;
48006;SDS011;33771;48.180;11.400;2024-01-15T03:33:44;16.00;;;8.40;;
48006;SDS011;33771;48.180;11.400;2024-01-15T03:36:09;15.13;;;8.03;;
48006;SDS011;33771;48.180;11.400;2024-01-15T03:38:35;19.87;;;9.07;;
48006;SDS011;33771;48.180;11.400;2024-01-15T03:41:05;15.70;;;8.73;;
48006;SDS011;33771;48.180;11.400;2024-01-15T03:43:31;17.33;;;8.63;;
48006;SDS011;33771;48.180;11.400;2024-01-15T03:45:56;14.80;;;7.40;;
48006;SDS011;33771;48.180;11.400;2024-01-15T03:48:22;17.53;;;8.50;;
48006;SDS011;33771;48.180;11.400;2024-01-15T03:50:47;16.60;;;8.57;;
48006;SDS011;33771;48.180;11.400;2024-01-15T03:53:13;18.20;;;8.80;;
48006;SDS011;33771;48.180;11.400;2024-01-15T03:55:38;16.07;;;8.47;;
48006;SDS011;33771;48.180;11.400;2024-01-15T03:58:04;15.30;;;7.47;;
48006;SDS011;33771;48.180;11.400;2024-01-15T04:00:29;18.70;;;9.07;;
48006;SDS011;33771;48.180;11.400;2024-01-15T04:02:55;16.77;;;8.27;;
48006;SDS011;33771;48.180;11.400;2024-01-15T04:05:20;16.00;;;7.93;;
48006;SDS011;33771;48.180;11.400;2024-01-15T04:07:46;13.97;;;7.63;;
48006;SDS011;33771;48.180;11.400;2024-01-15T04:10:11;14.43;;;7.70;;
48006;SDS011;33771;48.180;11.400;2024-01-15T04:12:37;15.80;;;8.20;;
48006;SDS011;33771;48.180;11.400;2024-01-15T04:15:03;16.13;;;9.13;;
48006;SDS011;33771;48.180;11.400;2024-01-15T04:17:28;14.90;;;7.63;;
48006;SDS011;33771;48.180;11.400;2024-01-15T04:19:54;15.43;;;7.93;;
48006;SDS011;33771;48.180;11.400;2024-01-15T04:22:20;17.10;;;8.13;;
48006;SDS011;33771;48.180;11.400;2024-01-15T04:24:45;14.90;;;7.50;;
48006;SDS011;33771;48.180;11.400;2024-01-15T04:27:11;16.20;;;7.53;;
48006;SDS011;33771;48.180;11.400;2024-01-15T04:29:40;15.97;;;7.43;;
48006;SDS011;33771;48.180;11.400;2024-01-15T04:32:05;14.13;;;7.40;;
48006;SDS011;33771;48.180;11.400;2024-01-15T04:34:31;14.93;;;8.37;;
48006;SDS011;33771;48.180;11.400;2024-01-15T04:36:56;14.80;;;7.90;;
48006;SDS011;33771;48.180;11.400;2024-01-15T04:39:22;15.13;;;8.20;;
48006;SDS011;33771;48.180;11.400;2024-01-15T04:41:48;16.03;;;8.27;;
48006;SDS011;33771;48.180;11.400;2024-01-15T04:44:13;14.70;;;7.60;;
48006;SDS011;33771;48.180;11.400;2024-01-15T04:46:40;14.83;;;7.40;;
48006;SDS011;33771;48.180;11.400;2024-01-15T04:49:05;15.60;;;7.80;;
48006;SDS011;33771;48.180;11.400;2024-01-15T04:51:31;15.23;;;8.13;;
48006;SDS011;33771;48.180;11.400;2024-01-15T04:53:57;13.97;;;7.20;;
48006;SDS011;33771;48.180;11.400;2024-01-15T04:56:22;13.93;;;7.20;;
48006;SDS011;33771;48.180;11.400;2024-01-15T04:58:48;14.27;;;7.83;;
48006;SDS011;33771;48.180;11.400;2024-01-15T05:01:15;14.47;;;7.00;;
48006;SDS011;33771;48.180;11.400;2024-01-15T05:03:41;13.07;;;7.43;;
48006;SDS011;33771;48.180;11.400;2024-01-15T05:06:07;15.53;;;7.07;;
48006;SDS011;33771;48.180;11.400;2024-01-15T05:08:32;15.30;;;7.00;;
48006;SDS011;33771;48.180;11.400;2024-01-15T05:10:58;13.97;;;8.20;;
48006;SDS011;33771;48.180;11.400;2024-01-15T05:13:23;13.63;;;7.33;;
48006;SDS011;33771;48.180;11.400;2024-01-15T05:15:50;17.43;;;8.00;;
48006;SDS011;33771;48.180;11.400;2024-01-15T05:18:16;15.70;;;7.23;;
48006;SDS011;33771;48.180;11.400;2024-01-15T05:20:41;14.90;;;7.17;;
48006;SDS011;33771;48.180;11.400;2024-01-15T05:23:07;12.20;;;6.73;;
48006;SDS011;33771;48.180;11.400;2024-01-15T05:25:33;12.40;;;7.07;;
48006;SDS011;33771;48.180;11.400;2024-01-15T05:27:58;13.33;;;6.37;;
48006;SDS011;33771;48.180;11.400;2024-01-15T05:30:24;11.93;;;7.03;;
48006;SDS011;33771;48.180;11.400;2024-01-15T05:32:50;14.83;;;7.67;;
48006;SDS011;33771;48.180;11.400;2024-01-15T05:35:15;15.30;;;7.00;;
48006;SDS011;33771;48.180;11.400;2024-01-15T05:37:43;13.87;;;7.03;;
48006;SDS011;33771;48.180;11.400;2024-01-15T05:40:10;13.43;;;7.33;;
48006;SDS011;33771;48.180;11.400;2024-01-15T05:42:37;13.97;;;7.00;;
48006;SDS011;33771;48.180;11.400;2024-01-15T05:45:03;11.30;;;6.30;;
48006;SDS011;33771;48.180;11.400;2024-01-15T05:47:29;11.23;;;6.43;;
48006;SDS011;33771;48.180;11.400;2024-01-15T05:49:56;15.17;;;7.37;;
48006;SDS011;33771;48.180;11.400;2024-01-15T05:52:22;12.70;;;6.40;;
48006;SDS011;33771;48.180;11.400;2024-01-15T05:54:48;13.47;;;6.73;;
48006;SDS011;33771;48.180;11.400;2024-01-15T05:57:14;14.53;;;7.27;;
48006;SDS011;33771;48.180;11.400;2024-01-15T05:59:40;10.80;;;6.20;;
48006;SDS011;33771;48.180;11.400;2024-01-15T06:02:06;11.73;;;6.17;;
48006;SDS011;33771;48.180;11.400;2024-01-15T06:04:31;11.47;;;6.07;;
48006;SDS011;33771;48.180;11.400;2024-01-15T06:06:57;10.60;;;5.73;;
48006;SDS011;33771;48.180;11.400;2024-01-15T06:09:23;11.57;;;5.77;;
48006;SDS011;33771;48.180;11.400;2024-01-15T06:11:48;11.97;;;5.50;;
48006;SDS011;33771;48.180;11.400;2024-01-15T06:14:14;14.33;;;6.43;;
48006;SDS011;33771;48.180;11.400;2024-01-15T06:16:39;12.37;;;5.83;;
48006;SDS011;33771;48.180;11.400;2024-01-15T06:19:05;11.30;;;5.90;;
48006;SDS011;33771;48.180;11.400;2024-01-15T06:21:30;10.97;;;5.80;;
48006;SDS011;33771;48.180;11.400;2024-01-15T06:23:56;13.23;;;5.77;;
48006;SDS011;33771;48.180;11.400;2024-01-15T06:26:22;10.93;;;5.90;;
48006;SDS011;33771;48.180;11.400;2024-01-15T06:28:48;10.53;;;6.03;;
48006;SDS011;33771;48.180;11.400;2024-01-15T06:31:14;11.93;;;6.63;;
48006;SDS011;33771;48.180;11.400;2024-01-15T06:33:39;10.30;;;5.73;;
48006;SDS011;33771;48.180;11.400;2024-01-15T06:36:05;13.90;;;6.13;;
48006;SDS011;33771;48.180;11.400;2024-01-15T06:38:31;9.57;;;5.33;;
48006;SDS011;33771;48.180;11.400;2024-01-15T06:40:57;13.10;;;6.07;;
48006;SDS011;33771;48.180;11.400;2024-01-15T06:43:22;10.53;;;5.87;;
48006;SDS011;33771;48.180;11.400;2024-01-15T06:45:48;13.00;;;6.70;;
48006;SDS011;33771;48.180;11.400;2024-01-15T06:48:13;11.60;;;5.90;;
48006;SDS011;33771;48.180;11.400;2024-01-15T06:50:41;12.83;;;6.97;;
48006;SDS011;33771;48.180;11.400;2024-01-15T06:53:09;11.53;;;6.10;;
48006;SDS011;33771;48.180;11.400;2024-01-15T06:55:35;12.30;;;6.97;;
48006;SDS011;33771;48.180;11.400;2024-01-15T06:58:01;14.37;;;6.73;;
48006;SDS011;33771;48.180;11.400;2024-01-15T07:00:28;14.40;;;6.63;;
48006;SDS011;33771;48.180;11.400;2024-01-15T07:02:54;15.10;;;8.17;;
48006;SDS011;33771;48.180;11.400;2024-01-15T07:05:23;16.47;;;7.47;;
48006;SDS011;33771;48.180;11.400;2024-01-15T07:07:49;14.47;;;7.43;;
48006;SDS011;33771;48.180;11.400;2024-01-15T07:10:14;14.37;;;7.37;;
48006;SDS011;33771;48.180;11.400;2024-01-15T07:12:43;15.97;;;8.37;;
48006;SDS011;33771;48.180;11.400;2024-01-15T07:15:10;15.80;;;9.03;;
48006;SDS011;33771;48.180;11.400;2024-01-15T07:17:35;15.20;;;7.83;;
48006;SDS011;33771;48.180;11.400;2024-01-15T07:20:04;16.60;;;8.23;;
48006;SDS011;33771;48.180;11.400;2024-01-15T07:22:33;13.30;;;7.07;;
48006;SDS011;33771;48.180;11.400;2024-01-15T07:25:00;13.53;;;7.33;;
48006;SDS011;33771;48.180;11.400;2024-01-15T07:27:26;15.37;;;7.27;;
48006;SDS011;33771;48.180;11.400;2024-01-15T07:29:51;15.93;;;7.60;;
48006;SDS011;33771;48.180;11.400;2024-01-15T07:32:17;17.40;;;8.40;;
48006;SDS011;33771;48.180;11.400;2024-01-15T07:34:43;14.50;;;8.00;;
48006;SDS011;33771;48.180;11.400;2024-01-15T07:37:08;15.63;;;8.13;;
48006;SDS011;33771;48.180;11.400;2024-01-15T07:39:34;16.27;;;8.23;;
48006;SDS011;33771;48.180;11.400;2024-01-15T07:42:00;15.87;;;8.13;;
48006;SDS011;33771;48.180;11.400;2024-01-15T07:44:25;19.40;;;8.37;;
48006;SDS011;33771;48.180;11.400;2024-01-15T07:46:51;14.87;;;7.80;;
48006;SDS011;33771;48.180;11.400;2024-01-15T07:49:17;14.63;;;7.67;;
48006;SDS011;33771;48.180;11.400;2024-01-15T07:51:42;14.10;;;7.23;;
48006;SDS011;33771;48.180;11.400;2024-01-15T07:54:11;14.77;;;7.67;;
48006;SDS011;33771;48.180;11.400;2024-01-15T07:56:53;14.60;;;7.27;;
48006;SDS011;33771;48.180;11.400;2024-01-15T07:59:19;13.90;;;7.30;;
48006;SDS011;33771;48.180;11.400;2024-01-15T08:01:44;13.73;;;7.13;;
48006;SDS011;33771;48.180;11.400;2024-01-15T08:04:10;13.70;;;7.97;;
48006;SDS011;33771;48.180;11.400;2024-01-15T08:06:37;14.57;;;7.70;;
48006;SDS011;33771;48.180;11.400;2024-01-15T08:09:03;15.93;;;7.60;;
48006;SDS011;33771;48.180;11.400;2024-01-15T08:11:29;15.23;;;7.33;;
48006;SDS011;33771;48.180;11.400;2024-01-15T08:13:55;16.77;;;8.47;;
48006;SDS011;33771;48.180;11.400;2024-01-15T08:16:21;13.63;;;7.40;;
48006;SDS011;33771;48.180;11.400;2024-01-15T08:18:46;14.23;;;7.53;;
48006;SDS011;33771;48.180;11.400;2024-01-15T08:21:12;13.40;;;6.70;;
48006;SDS011;33771;48.180;11.400;2024-01-15T08:23:38;14.77;;;7.93;;
48006;SDS011;33771;48.180;11.400;2024-01-15T08:26:04;13.93;;;7.67;;
48006;SDS011;33771;48.180;11.400;2024-01-15T08:28:30;14.00;;;7.23;;
48006;SDS011;33771;48.180;11.400;2024-01-15T08:30:55;13.13;;;6.80;;
48006;SDS011;33771;48.180;11.400;2024-01-15T08:33:21;15.37;;;7.40;;
48006;SDS011;33771;48.180;11.400;2024-01-15T08:35:47;15.37;;;7.03;;
48006;SDS011;33771;48.180;11.400;2024-01-15T08:38:13;11.47;;;6.47;;
48006;SDS011;33771;48.180;11.400;2024-01-15T08:40:39;12.57;;;6.77;;
48006;SDS011;33771;48.180;11.400;2024-01-15T08:43:04;13.83;;;6.70;;
48006;SDS011;33771;48.180;11.400;2024-01-15T08:45:31;12.47;;;7.27;;
48006;SDS011;33771;48.180;11.400;2024-01-15T08:47:57;12.47;;;6.63;;
48006;SDS011;33771;48.180;11.400;2024-01-15T08:50:23;13.10;;;7.27;;
48006;SDS011;33771;48.180;11.400;2024-01-15T08:52:48;13.17;;;7.13;;
48006;SDS011;33771;48.180;11.400;2024-01-15T08:55:14;14.20;;;6.97;;
48006;SDS011;33771;48.180;11.400;2024-01-15T08:57:39;12.93;;;7.03;;
48006;SDS011;33771;48.180;11.400;2024-01-15T09:00:05;14.57;;;7.53;;
48006;SDS011;33771;48.180;11.400;2024-01-15T09:02:33;14.30;;;7.47;;
48006;SDS011;33771;48.180;11.400;2024-01-15T09:05:00;13.83;;;7.03;;
48006;SDS011;33771;48.180;11.400;2024-01-15T09:07:25;11.37;;;5.93;;
48006;SDS011;33771;48.180;11.400;2024-01-15T09:09:51;12.67;;;7.13;;
48006;SDS011;33771;48.180;11.400;2024-01-15T09:12:17;15.33;;;8.53;;
48006;SDS011;33771;48.180;11.400;2024-01-15T09:14:45;14.80;;;7.00;;
48006;SDS011;33771;48.180;11.400;2024-01-15T09:17:11;13.77;;;7.10;;
48006;SDS011;33771;48.180;11.400;2024-01-15T09:19:37;12.77;;;6.60;;
48006;SDS011;33771;48.180;11.400;2024-01-15T09:22:04;14.73;;;7.00;;
48006;SDS011;33771;48.180;11.400;2024-01-15T09:24:30;14.77;;;6.77;;
48006;SDS011;33771;48.180;11.400;2024-01-15T09:26:56;12.63;;;6.50;;
48006;SDS011;33771;48.180;11.400;2024-01-15T09:29:21;11.17;;;6.13;;
48006;SDS011;33771;48.180;11.400;2024-01-15T09:31:48;13.40;;;7.77;;
48006;SDS011;33771;48.180;11.400;2024-01-15T09:34:15;12.83;;;6.67;;
48006;SDS011;33771;48.180;11.400;2024-01-15T09:36:42;10.07;;;6.23;;
48006;SDS011;33771;48.180;11.400;2024-01-15T09:39:08;11.93;;;6.30;;
48006;SDS011;33771;48.180;11.400;2024-01-15T09:41:36;13.03;;;6.00;;
48006;SDS011;33771;48.180;11.400;2024-01-15T09:44:02;12.50;;;6.70;;
48006;SDS011;33771;48.180;11.400;2024-01-15T09:46:29;10.20;;;6.23;;
48006;SDS011;33771;48.180;11.400;2024-01-15T09:48:58;11.50;;;6.00;;
48006;SDS011;33771;48.180;11.400;2024-01-15T09:51:24;9.13;;;5.37;;
48006;SDS011;33771;48.180;11.400;2024-01-15T09:53:49;10.37;;;5.23;;
48006;SDS011;33771;48.180;11.400;2024-01-15T09:56:15;9.10;;;5.20;;
48006;SDS011;33771;48.180;11.400;2024-01-15T09:58:41;9.80;;;6.47;;
48006;SDS011;33771;48.180;11.400;2024-01-15T10:01:07;11.20;;;6.53;;
48006;SDS011;33771;48.180;11.400;2024-01-15T10:03:34;9.63;;;6.07;;
48006;SDS011;33771;48.180;11.400;2024-01-15T10:05:59;10.17;;;5.60;;
48006;SDS011;33771;48.180;11.400;2024-01-15T10:08:25;9.53;;;4.97;;
48006;SDS011;33771;48.180;11.400;2024-01-15T10:10:50;9.70;;;5.03;;
48006;SDS011;33771;48.180;11.400;2024-01-15T10:13:16;10.77;;;5.10;;
48006;SDS011;33771;48.180;11.400;2024-01-15T10:15:45;9.87;;;5.13;;
48006;SDS011;33771;48.180;11.400;2024-01-15T10:18:12;9.80;;;5.60;;
48006;SDS011;33771;48.180;11.400;2024-01-15T10:20:37;9.90;;;5.00;;
48006;SDS011;33771;48.180;11.400;2024-01-15T10:23:04;9.07;;;4.90;;
48006;SDS011;33771;48.180;11.400;2024-01-15T10:25:30;9.67;;;4.80;;
48006;SDS011;33771;48.180;11.400;2024-01-15T10:27:59;8.17;;;4.97;;
48006;SDS011;33771;48.180;11.400;2024-01-15T10:30:29;8.47;;;4.80;;
48006;SDS011;33771;48.180;11.400;2024-01-15T10:32:58;9.60;;;5.43;;
48006;SDS011;33771;48.180;11.400;2024-01-15T10:35:26;9.57;;;5.20;;
48006;SDS011;33771;48.180;11.400;2024-01-15T10:37:53;8.53;;;4.70;;
48006;SDS011;33771;48.180;11.400;2024-01-15T10:40:18;7.57;;;4.60;;
48006;SDS011;33771;48.180;11.400;2024-01-15T10:42:44;10.70;;;5.13;;
48006;SDS011;33771;48.180;11.400;2024-01-15T10:45:09;10.57;;;4.97;;
48006;SDS011;33771;48.180;11.400;2024-01-15T10:47:35;12.60;;;5.27;;
48006;SDS011;33771;48.180;11.400;2024-01-15T10:50:01;8.53;;;5.07;;
48006;SDS011;33771;48.180;11.400;2024-01-15T10:52:28;9.90;;;4.97;;
48006;SDS011;33771;48.180;11.400;2024-01-15T10:54:54;8.93;;;4.93;;
48006;SDS011;33771;48.180;11.400;2024-01-15T10:57:20;7.83;;;4.53;;
48006;SDS011;33771;48.180;11.400;2024-01-15T10:59:47;8.37;;;4.50;;
48006;SDS011;33771;48.180;11.400;2024-01-15T11:02:13;8.23;;;4.60;;
48006;SDS011;33771;48.180;11.400;2024-01-15T11:04:40;10.63;;;6.00;;
48006;SDS011;33771;48.180;11.400;2024-01-15T11:07:05;9.27;;;4.73;;
48006;SDS011;33771;48.180;11.400;2024-01-15T11:09:31;9.23;;;5.13;;
48006;SDS011;33771;48.180;11.400;2024-01-15T11:12:07;8.13;;;4.87;;
48006;SDS011;33771;48.180;11.400;2024-01-15T11:17:08;10.30;;;5.40;;
48006;SDS011;33771;48.180;11.400;2024-01-15T11:19:44;10.93;;;5.07;;
48006;SDS011;33771;48.180;11.400;2024-01-15T11:22:53;10.73;;;5.50;;
48006;SDS011;33771;48.180;11.400;2024-01-15T11:25:13;13.13;;;5.50;;
48006;SDS011;33771;48.180;11.400;2024-01-15T11:27:43;9.80;;;5.97;;
48006;SDS011;33771;48.180;11.400;2024-01-15T11:30:10;10.90;;;5.63;;
48006;SDS011;33771;48.180;11.400;2024-01-15T11:32:37;10.27;;;5.40;;
48006;SDS011;33771;48.180;11.400;2024-01-15T11:35:06;10.33;;;5.43;;
48006;SDS011;33771;48.180;11.400;2024-01-15T11:40:21;9.27;;;4.80;;
48006;SDS011;33771;48.180;11.400;2024-01-15T11:43:00;9.47;;;4.80;;
48006;SDS011;33771;48.180;11.400;2024-01-15T11:45:27;9.43;;;4.93;;
48006;SDS011;33771;48.180;11.400;2024-01-15T11:50:38;9.27;;;5.10;;
48006;SDS011;33771;48.180;11.400;2024-01-15T11:55:51;9.77;;;4.90;;
48006;SDS011;33771;48.180;11.400;2024-01-15T11:58:17;11.57;;;5.53;;
48006;SDS011;33771;48.180;11.400;2024-01-15T12:00:43;8.97;;;4.87;;
48006;SDS011;33771;48.180;11.400;2024-01-15T12:03:10;11.50;;;5.10;;
48006;SDS011;33771;48.180;11.400;2024-01-15T12:05:36;11.77;;;5.30;;
48006;SDS011;33771;48.180;11.400;2024-01-15T12:08:03;10.77;;;5.07;;
48006;SDS011;33771;48.180;11.400;2024-01-15T12:10:35;10.30;;;4.57;;
48006;SDS011;33771;48.180;11.400;2024-01-15T12:13:11;10.03;;;4.30;;
48006;SDS011;33771;48.180;11.400;2024-01-15T12:15:38;10.40;;;4.20;;
48006;SDS011;33771;48.180;11.400;2024-01-15T12:18:08;7.93;;;4.07;;
48006;SDS011;33771;48.180;11.400;2024-01-15T12:20:35;9.93;;;4.20;;
48006;SDS011;33771;48.180;11.400;2024-01-15T12:23:01;8.43;;;4.47;;
48006;SDS011;33771;48.180;11.400;2024-01-15T12:25:28;6.47;;;4.33;;
48006;SDS011;33771;48.180;11.400;2024-01-15T12:27:55;8.03;;;4.30;;
48006;SDS011;33771;48.180;11.400;2024-01-15T12:30:21;6.83;;;3.60;;
48006;SDS011;33771;48.180;11.400;2024-01-15T12:32:47;7.60;;;4.03;;
48006;SDS011;33771;48.180;11.400;2024-01-15T12:35:13;8.00;;;4.00;;
48006;SDS011;33771;48.180;11.400;2024-01-15T12:37:39;9.37;;;3.73;;
48006;SDS011;33771;48.180;11.400;2024-01-15T12:40:06;7.77;;;3.77;;
48006;SDS011;33771;48.180;11.400;2024-01-15T12:42:33;7.27;;;3.60;;
48006;SDS011;33771;48.180;11.400;2024-01-15T12:45:00;7.17;;;3.70;;
48006;SDS011;33771;48.180;11.400;2024-01-15T12:47:25;7.63;;;3.40;;
48006;SDS011;33771;48.180;11.400;2024-01-15T12:49:52;8.57;;;3.80;;
48006;SDS011;33771;48.180;11.400;2024-01-15T12:52:20;8.10;;;3.73;;
48006;SDS011;33771;48.180;11.400;2024-01-15T12:54:49;6.50;;;3.33;;
48006;SDS011;33771;48.180;11.400;2024-01-15T12:57:15;6.70;;;3.60;;
48006;SDS011;33771;48.180;11.400;2024-01-15T12:59:42;7.30;;;4.00;;
48006;SDS011;33771;48.180;11.400;2024-01-15T13:02:09;5.57;;;3.27;;
48006;SDS011;33771;48.180;11.400;2024-01-15T13:04:35;6.70;;;3.53;;
48006;SDS011;33771;48.180;11.400;2024-01-15T13:07:01;7.80;;;3.70;;
48006;SDS011;33771;48.180;11.400;2024-01-15T13:09:27;6.27;;;3.47;;
48006;SDS011;33771;48.180;11.400;2024-01-15T13:11:52;6.67;;;3.60;;
48006;SDS011;33771;48.180;11.400;2024-01-15T13:14:18;7.77;;;4.23;;
48006;SDS011;33771;48.180;11.400;2024-01-15T13:16:44;6.47;;;4.17;;
48006;SDS011;33771;48.180;11.400;2024-01-15T13:19:09;8.50;;;4.17;;
48006;SDS011;33771;48.180;11.400;2024-01-15T13:21:36;7.77;;;4.43;;
48006;SDS011;33771;48.180;11.400;2024-01-15T13:24:02;7.80;;;4.30;;
48006;SDS011;33771;48.180;11.400;2024-01-15T13:26:30;10.70;;;5.23;;
48006;SDS011;33771;48.180;11.400;2024-01-15T13:28:56;8.17;;;4.63;;
48006;SDS011;33771;48.180;11.400;2024-01-15T13:31:22;7.53;;;3.80;;
48006;SDS011;33771;48.180;11.400;2024-01-15T13:33:47;9.07;;;4.97;;
48006;SDS011;33771;48.180;11.400;2024-01-15T13:36:13;8.93;;;4.57;;
48006;SDS011;33771;48.180;11.400;2024-01-15T13:38:39;9.93;;;4.93;;
48006;SDS011;33771;48.180;11.400;2024-01-15T13:41:04;10.90;;;5.10;;
48006;SDS011;33771;48.180;11.400;2024-01-15T13:43:31;9.33;;;4.93;;
48006;SDS011;33771;48.180;11.400;2024-01-15T13:45:57;9.23;;;4.83;;
48006;SDS011;33771;48.180;11.400;2024-01-15T13:48:23;9.03;;;4.80;;
48006;SDS011;33771;48.180;11.400;2024-01-15T13:50:49;8.70;;;4.20;;
48006;SDS011;33771;48.180;11.400;2024-01-15T13:53:15;10.03;;;5.27;;
48006;SDS011;33771;48.180;11.400;2024-01-15T13:55:41;9.73;;;5.27;;
48006;SDS011;33771;48.180;11.400;2024-01-15T13:58:06;12.93;;;5.63;;
48006;SDS011;33771;48.180;11.400;2024-01-15T14:00:32;11.37;;;4.93;;
48006;SDS011;33771;48.180;11.400;2024-01-15T14:02:58;9.50;;;5.07;;
48006;SDS011;33771;48.180;11.400;2024-01-15T14:05:24;11.60;;;5.67;;
48006;SDS011;33771;48.180;11.400;2024-01-15T14:07:49;11.20;;;6.13;;
48006;SDS011;33771;48.180;11.400;2024-01-15T14:10:15;10.50;;;5.67;;
48006;SDS011;33771;48.180;11.400;2024-01-15T14:12:40;9.47;;;5.70;;
48006;SDS011;33771;48.180;11.400;2024-01-15T14:15:06;10.43;;;5.50;;
48006;SDS011;33771;48.180;11.400;2024-01-15T14:17:32;11.57;;;5.63;;
48006;SDS011;33771;48.180;11.400;2024-01-15T14:19:58;9.47;;;5.47;;
48006;SDS011;33771;48.180;11.400;2024-01-15T14:22:23;9.97;;;5.57;;
48006;SDS011;33771;48.180;11.400;2024-01-15T14:24:49;11.97;;;5.47;;
48006;SDS011;33771;48.180;11.400;2024-01-15T14:27:15;10.53;;;6.23;;
48006;SDS011;33771;48.180;11.400;2024-01-15T14:29:41;10.33;;;6.00;;